createdAt,value
2023-01-04T00:01:59.963Z,8.76
2023-01-04T00:04:26.709Z,8.63
2023-01-04T00:06:53.436Z,8.62
2023-01-04T00:09:20.174Z,8.74
2023-01-04T00:11:46.882Z,8.64
2023-01-04T00:14:14.383Z,8.54
2023-01-04T00:16:41.150Z,8.52
2023-01-04T00:19:07.940Z,8.58
2023-01-04T00:21:34.601Z,8.70
2023-01-04T00:24:02.119Z,9.04
2023-01-04T00:26:31.508Z,9.03
2023-01-04T00:29:00.903Z,9.08
2023-01-04T00:31:29.020Z,8.65
2023-01-04T00:33:57.478Z,8.63
2023-01-04T00:36:25.226Z,8.99
2023-01-04T00:39:08.025Z,9.00
2023-01-04T00:42:02.283Z,9.04
2023-01-04T00:44:29.695Z,9.09
2023-01-04T00:46:56.508Z,8.91
2023-01-04T00:49:23.541Z,8.96
2023-01-04T00:51:50.793Z,9.04
2023-01-04T00:54:17.765Z,8.87
2023-01-04T00:56:44.774Z,8.78
2023-01-04T00:59:13.683Z,9.07
2023-01-04T01:01:40.780Z,8.91
2023-01-04T01:04:08.018Z,9.03
2023-01-04T01:06:34.989Z,9.08
2023-01-04T01:09:02.055Z,9.05
2023-01-04T01:11:29.748Z,8.89
2023-01-04T01:13:57.691Z,9.14
2023-01-04T01:16:53.235Z,9.08
2023-01-04T01:19:12.395Z,9.17
2023-01-04T01:21:39.666Z,9.14
2023-01-04T01:24:06.896Z,9.13
2023-01-04T01:26:33.636Z,9.16
2023-01-04T01:29:00.507Z,8.93
2023-01-04T01:31:29.099Z,8.98
2023-01-04T01:33:57.425Z,9.16
2023-01-04T01:36:26.413Z,9.01
2023-01-04T01:38:54.236Z,9.02
2023-01-04T01:41:24.223Z,9.19
2023-01-04T01:43:55.156Z,8.88
2023-01-04T01:46:48.866Z,9.02
2023-01-04T01:49:44.849Z,9.15
2023-01-04T01:52:22.843Z,9.06
2023-01-04T01:55:00.154Z,8.92
2023-01-04T01:57:30.865Z,8.89
2023-01-04T02:00:01.529Z,8.69
2023-01-04T02:02:28.427Z,9.02
2023-01-04T02:04:55.902Z,8.71
2023-01-04T02:07:26.679Z,8.84
2023-01-04T02:09:55.020Z,8.86
2023-01-04T02:12:22.093Z,8.71
2023-01-04T02:14:50.888Z,8.83
2023-01-04T02:17:24.334Z,8.55
2023-01-04T02:20:10.588Z,8.92
2023-01-04T02:23:00.331Z,9.17
2023-01-04T02:25:59.944Z,8.95
2023-01-04T02:29:00.742Z,9.18
2023-01-04T02:31:47.610Z,9.18
2023-01-04T02:34:36.124Z,9.19
2023-01-04T02:37:35.177Z,8.97
2023-01-04T02:40:31.174Z,8.99
2023-01-04T02:43:25.131Z,9.05
2023-01-04T02:46:03.197Z,8.88
2023-01-04T02:48:59.335Z,9.06
2023-01-04T02:51:34.897Z,8.90
2023-01-04T02:54:09.016Z,8.86
2023-01-04T02:56:38.967Z,8.90
2023-01-04T02:59:05.626Z,8.91
2023-01-04T03:02:09.992Z,8.81
2023-01-04T03:05:32.907Z,8.70
2023-01-04T03:08:13.091Z,8.60
2023-01-04T03:10:45.374Z,8.31
2023-01-04T03:13:26.048Z,8.41
2023-01-04T03:16:04.865Z,8.59
2023-01-04T03:18:36.344Z,8.40
2023-01-04T03:21:04.989Z,8.35
2023-01-04T03:23:55.519Z,8.03
2023-01-04T03:26:46.734Z,7.68
2023-01-04T03:29:50.268Z,7.57
2023-01-04T03:32:46.328Z,7.73
2023-01-04T03:35:28.272Z,7.50
2023-01-04T03:38:42.762Z,7.11
2023-01-04T03:41:53.945Z,7.51
2023-01-04T03:44:53.453Z,7.10
2023-01-04T03:47:47.971Z,7.20
2023-01-04T03:50:33.259Z,7.04
2023-01-04T03:53:01.515Z,6.72
2023-01-04T03:55:30.789Z,6.86
2023-01-04T03:57:59.351Z,6.61
2023-01-04T04:00:26.587Z,6.75
2023-01-04T04:02:53.324Z,6.42
2023-01-04T04:05:43.226Z,6.71
2023-01-04T04:08:28.844Z,6.57
2023-01-04T04:11:23.302Z,6.54
2023-01-04T04:13:51.308Z,6.66
2023-01-04T04:16:18.107Z,6.56
2023-01-04T04:18:44.941Z,6.57
2023-01-04T04:21:11.623Z,6.35
2023-01-04T04:23:38.302Z,6.77
2023-01-04T04:26:05.464Z,6.74
2023-01-04T04:28:32.528Z,6.53
2023-01-04T04:30:59.261Z,6.39
2023-01-04T04:33:26.088Z,6.69
2023-01-04T04:35:54.740Z,6.17
2023-01-04T04:38:22.252Z,6.89
2023-01-04T04:41:08.083Z,6.95
2023-01-04T04:43:35.664Z,6.67
2023-01-04T04:46:03.014Z,6.77
2023-01-04T04:48:29.815Z,6.54
2023-01-04T04:50:56.564Z,6.70
2023-01-04T04:53:23.619Z,6.79
2023-01-04T04:55:54.439Z,6.73
2023-01-04T04:58:21.597Z,7.01
2023-01-04T05:00:48.335Z,6.51
2023-01-04T05:03:15.313Z,6.72
2023-01-04T05:05:42.627Z,6.85
2023-01-04T05:08:09.383Z,6.62
2023-01-04T05:10:37.779Z,6.77
2023-01-04T05:13:06.432Z,7.01
2023-01-04T05:15:38.928Z,6.27
2023-01-04T05:18:06.941Z,6.76
2023-01-04T05:20:33.916Z,6.75
2023-01-04T05:23:01.118Z,6.93
2023-01-04T05:25:28.122Z,6.42
2023-01-04T05:27:54.899Z,6.24
2023-01-04T05:30:40.534Z,6.31
2023-01-04T05:33:08.069Z,6.47
2023-01-04T05:35:34.793Z,6.31
2023-01-04T05:38:01.644Z,6.22
2023-01-04T05:40:28.437Z,6.17
2023-01-04T05:42:55.194Z,6.30
2023-01-04T05:45:21.975Z,6.44
2023-01-04T05:47:53.362Z,6.65
2023-01-04T05:50:22.119Z,6.27
2023-01-04T05:52:49.505Z,6.50
2023-01-04T05:55:16.266Z,6.31
2023-01-04T05:57:43.512Z,6.11
2023-01-04T06:00:11.902Z,6.03
2023-01-04T06:02:38.926Z,5.91
2023-01-04T06:05:06.029Z,5.96
2023-01-04T06:07:33.210Z,6.44
2023-01-04T06:09:59.896Z,6.28
2023-01-04T06:12:26.779Z,6.34
2023-01-04T06:14:53.924Z,6.44
2023-01-04T06:17:20.938Z,6.12
2023-01-04T06:19:47.674Z,5.89
2023-01-04T06:22:14.965Z,6.20
2023-01-04T06:24:41.688Z,5.96
2023-01-04T06:27:08.462Z,6.23
2023-01-04T06:29:35.173Z,6.29
2023-01-04T06:32:01.997Z,6.11
2023-01-04T06:34:31.146Z,6.38
2023-01-04T06:36:58.803Z,6.11
2023-01-04T06:39:25.759Z,6.31
2023-01-04T06:41:52.600Z,6.16
2023-01-04T06:44:19.312Z,6.27
2023-01-04T06:46:46.018Z,6.03
2023-01-04T06:49:12.687Z,6.26
2023-01-04T06:51:39.400Z,6.40
2023-01-04T06:54:06.319Z,6.13
2023-01-04T06:56:33.718Z,6.30
2023-01-04T06:59:00.464Z,6.23
2023-01-04T07:01:27.233Z,6.26
2023-01-04T07:03:54.149Z,6.40
2023-01-04T07:06:21.010Z,6.55
2023-01-04T07:08:47.749Z,6.25
2023-01-04T07:11:14.406Z,6.17
2023-01-04T07:13:41.103Z,6.18
2023-01-04T07:16:07.806Z,6.40
2023-01-04T07:18:34.528Z,6.20
2023-01-04T07:21:01.230Z,6.10
2023-01-04T07:23:27.983Z,6.39
2023-01-04T07:25:54.754Z,6.39
2023-01-04T07:28:39.940Z,6.51
2023-01-04T07:31:08.162Z,6.40
2023-01-04T07:33:35.119Z,6.40
2023-01-04T07:36:03.861Z,6.28
2023-01-04T07:38:30.537Z,6.33
2023-01-04T07:40:57.469Z,6.33
2023-01-04T07:43:27.668Z,6.25
2023-01-04T07:45:55.424Z,6.25
2023-01-04T07:48:22.297Z,6.29
2023-01-04T07:50:49.969Z,6.32
2023-01-04T07:53:16.683Z,6.01
2023-01-04T07:55:43.403Z,6.36
2023-01-04T07:58:10.158Z,6.25
2023-01-04T08:00:37.095Z,6.20
2023-01-04T08:03:04.716Z,6.35
2023-01-04T08:05:35.367Z,6.74
2023-01-04T08:08:02.130Z,6.41
2023-01-04T08:10:29.239Z,6.34
2023-01-04T08:12:59.133Z,6.80
2023-01-04T08:15:26.846Z,6.49
2023-01-04T08:17:53.666Z,6.62
2023-01-04T08:20:20.455Z,6.70
2023-01-04T08:22:47.204Z,6.49
2023-01-04T08:25:14.205Z,6.63
2023-01-04T08:27:41.920Z,6.46
2023-01-04T08:30:11.742Z,6.48
2023-01-04T08:32:40.840Z,6.55
2023-01-04T08:35:08.863Z,6.68
2023-01-04T08:37:35.599Z,6.43
2023-01-04T08:40:02.745Z,6.50
2023-01-04T08:42:31.861Z,6.71
2023-01-04T08:45:01.561Z,6.70
2023-01-04T08:47:32.929Z,6.47
2023-01-04T08:50:03.465Z,6.67
2023-01-04T08:52:36.500Z,6.46
2023-01-04T08:55:08.313Z,6.69
2023-01-04T08:57:38.935Z,6.47
2023-01-04T09:00:06.705Z,6.80
2023-01-04T09:02:33.648Z,6.86
2023-01-04T09:05:03.232Z,6.65
2023-01-04T09:07:31.420Z,7.02
2023-01-04T09:09:58.219Z,6.84
2023-01-04T09:12:24.988Z,6.64
2023-01-04T09:14:51.758Z,6.85
2023-01-04T09:17:18.466Z,6.73
2023-01-04T09:19:45.228Z,6.71
2023-01-04T09:22:11.971Z,6.88
2023-01-04T09:24:38.652Z,6.86
2023-01-04T09:27:05.417Z,6.83
2023-01-04T09:29:32.085Z,6.74
2023-01-04T09:31:58.875Z,6.93
2023-01-04T09:34:25.853Z,7.16
2023-01-04T09:36:52.561Z,6.90
2023-01-04T09:39:23.049Z,6.64
2023-01-04T09:41:58.402Z,7.32
2023-01-04T09:47:33.379Z,7.27
2023-01-04T09:50:06.276Z,7.11
2023-01-04T09:52:43.458Z,6.82
2023-01-04T09:55:37.868Z,6.63
2023-01-04T09:58:39.835Z,7.19
2023-01-04T10:01:08.678Z,7.32
2023-01-04T10:03:39.052Z,6.78
2023-01-04T10:06:10.222Z,6.78
2023-01-04T10:08:36.880Z,7.07
2023-01-04T10:11:22.478Z,7.33
2023-01-04T10:14:13.813Z,7.45
2023-01-04T10:17:14.088Z,6.75
2023-01-04T10:23:21.091Z,7.42
2023-01-04T10:26:21.739Z,7.43
2023-01-04T10:29:11.316Z,7.33
2023-01-04T10:31:46.057Z,6.95
2023-01-04T10:34:21.028Z,7.30
2023-01-04T10:36:49.927Z,7.31
2023-01-04T10:39:26.957Z,7.44
2023-01-04T10:42:16.877Z,7.33
2023-01-04T10:44:54.572Z,7.56
2023-01-04T10:47:44.869Z,7.31
2023-01-04T10:50:14.798Z,7.51
2023-01-04T10:52:48.138Z,7.49
2023-01-04T10:55:30.359Z,7.08
2023-01-04T10:58:02.831Z,7.14
2023-01-04T11:00:41.196Z,7.23
2023-01-04T11:03:13.356Z,7.02
2023-01-04T11:05:59.743Z,7.53
2023-01-04T11:08:36.373Z,7.36
2023-01-04T11:11:11.110Z,7.66
2023-01-04T11:13:38.846Z,7.55
2023-01-04T11:16:06.811Z,7.58
2023-01-04T11:18:37.579Z,7.45
2023-01-04T11:21:12.617Z,7.37
2023-01-04T11:23:39.424Z,7.46
2023-01-04T11:26:22.596Z,7.44
2023-01-04T11:28:57.727Z,7.60
2023-01-04T11:31:44.471Z,7.74
2023-01-04T11:34:11.339Z,7.75
2023-01-04T11:36:40.995Z,7.56
2023-01-04T11:39:18.478Z,7.62
2023-01-04T11:42:06.128Z,7.82
2023-01-04T11:44:34.673Z,7.77
2023-01-04T11:47:26.753Z,7.68
2023-01-04T11:49:55.829Z,7.77
2023-01-04T11:52:34.667Z,7.58
2023-01-04T11:55:16.907Z,7.31
2023-01-04T11:57:43.854Z,7.74
2023-01-04T12:00:15.356Z,7.50
2023-01-04T12:03:00.705Z,7.55
2023-01-04T12:05:32.105Z,7.41
2023-01-04T12:07:59.408Z,7.89
2023-01-04T12:10:28.069Z,7.06
2023-01-04T12:13:00.599Z,7.42
2023-01-04T12:15:59.633Z,7.74
2023-01-04T12:18:29.137Z,7.16
2023-01-04T12:20:57.159Z,7.27
2023-01-04T12:23:24.144Z,7.33
2023-01-04T12:25:52.389Z,7.24
2023-01-04T12:28:37.316Z,7.57
2023-01-04T12:31:19.961Z,7.69
2023-01-04T12:33:51.628Z,7.68
2023-01-04T12:36:20.847Z,7.62
2023-01-04T12:39:11.963Z,7.63
2023-01-04T12:41:38.662Z,7.52
2023-01-04T12:44:37.788Z,7.30
2023-01-04T12:47:48.300Z,7.68
2023-01-04T12:50:23.347Z,8.30
2023-01-04T12:53:29.333Z,8.41
2023-01-04T12:55:55.914Z,7.71
2023-01-04T13:02:23.869Z,7.41
2023-01-04T13:05:25.719Z,7.99
2023-01-04T13:07:51.493Z,7.96
2023-01-04T13:10:27.301Z,8.06
2023-01-04T13:13:09.172Z,7.98
2023-01-04T13:16:01.823Z,8.00
2023-01-04T13:18:37.555Z,8.06
2023-01-04T13:21:15.718Z,7.68
2023-01-04T13:23:54.506Z,7.96
2023-01-04T13:26:27.233Z,8.09
2023-01-04T13:29:18.688Z,8.03
2023-01-04T13:31:48.485Z,8.10
2023-01-04T13:34:30.340Z,8.12
2023-01-04T13:37:12.374Z,7.86
2023-01-04T13:39:45.266Z,7.46
2023-01-04T13:42:26.935Z,7.87
2023-01-04T13:47:44.867Z,7.44
2023-01-04T13:50:37.583Z,7.48
2023-01-04T13:53:08.173Z,7.30
2023-01-04T13:55:39.329Z,7.68
2023-01-04T13:58:17.650Z,7.94
2023-01-04T14:00:45.922Z,7.82
2023-01-04T14:03:45.532Z,7.40
2023-01-04T14:06:14.843Z,7.74
2023-01-04T14:08:59.569Z,7.90
2023-01-04T14:12:07.848Z,7.63
2023-01-04T14:14:49.525Z,7.78
2023-01-04T14:17:17.579Z,8.01
2023-01-04T14:19:54.886Z,7.87
2023-01-04T14:22:21.536Z,8.13
2023-01-04T14:27:38.214Z,8.57
2023-01-04T14:30:20.498Z,8.33
2023-01-04T14:32:58.170Z,7.90
2023-01-04T14:35:26.540Z,7.56
2023-01-04T14:37:54.081Z,7.83
2023-01-04T14:40:28.523Z,8.09
2023-01-04T14:42:55.438Z,7.88
2023-01-04T14:45:22.452Z,7.53
2023-01-04T14:47:49.462Z,7.68
2023-01-04T14:50:17.818Z,7.59
2023-01-04T14:52:52.319Z,7.86
2023-01-04T14:55:20.104Z,7.84
2023-01-04T14:57:46.998Z,7.60
2023-01-04T15:00:19.531Z,7.60
2023-01-04T15:02:50.476Z,7.50
2023-01-04T15:05:20.451Z,7.63
2023-01-04T15:07:47.702Z,7.58
2023-01-04T15:10:26.080Z,7.82
2023-01-04T15:12:53.795Z,7.85
2023-01-04T15:15:20.939Z,7.49
2023-01-04T15:17:48.098Z,7.53
2023-01-04T15:20:14.992Z,7.45
2023-01-04T15:22:41.755Z,7.42
2023-01-04T15:25:10.357Z,7.30
2023-01-04T15:27:42.188Z,7.35
2023-01-04T15:30:10.993Z,7.18
2023-01-04T15:32:37.780Z,7.52
2023-01-04T15:35:04.893Z,7.12
2023-01-04T15:37:31.657Z,7.34
2023-01-04T15:40:02.642Z,7.31
2023-01-04T15:42:48.589Z,7.38
2023-01-04T15:45:15.489Z,7.20
2023-01-04T15:47:42.181Z,7.15
2023-01-04T15:50:09.023Z,7.04
2023-01-04T15:52:35.900Z,6.84
2023-01-04T15:55:02.723Z,6.90
2023-01-04T15:57:29.392Z,6.80
2023-01-04T15:59:56.099Z,7.27
2023-01-04T16:02:22.835Z,6.84
2023-01-04T16:04:50.526Z,6.29
2023-01-04T16:07:18.316Z,6.62
2023-01-04T16:09:45.196Z,6.78
2023-01-04T16:12:30.491Z,6.65
2023-01-04T16:14:57.162Z,6.50
2023-01-04T16:17:25.323Z,6.64
2023-01-04T16:19:52.132Z,6.50
2023-01-04T16:22:18.818Z,6.66
2023-01-04T16:25:09.788Z,6.53
2023-01-04T16:27:35.704Z,6.58
2023-01-04T16:30:04.076Z,6.67
2023-01-04T16:32:30.784Z,6.42
2023-01-04T16:34:57.734Z,6.42
2023-01-04T16:37:28.985Z,6.54
2023-01-04T16:40:11.118Z,6.40
2023-01-04T16:42:38.114Z,6.16
2023-01-04T16:45:06.513Z,6.30
2023-01-04T16:47:43.906Z,6.44
2023-01-04T16:50:14.498Z,6.67
2023-01-04T16:52:41.275Z,6.24
2023-01-04T16:55:09.388Z,6.03
2023-01-04T16:57:36.497Z,6.13
2023-01-04T17:00:07.082Z,6.26
2023-01-04T17:02:33.876Z,6.50
2023-01-04T17:05:01.213Z,6.03
2023-01-04T17:07:32.593Z,6.01
2023-01-04T17:10:01.046Z,6.21
2023-01-04T17:15:41.900Z,6.49
2023-01-04T17:18:02.187Z,6.13
2023-01-04T17:20:29.172Z,5.92
2023-01-04T17:22:55.911Z,6.31
2023-01-04T17:25:24.928Z,6.05
2023-01-04T17:27:51.666Z,6.17
2023-01-04T17:30:18.480Z,5.98
2023-01-04T17:32:45.151Z,6.04
2023-01-04T17:35:15.037Z,5.86
2023-01-04T17:37:41.840Z,6.14
2023-01-04T17:40:09.847Z,5.93
2023-01-04T17:42:36.630Z,6.19
2023-01-04T17:45:06.119Z,6.07
2023-01-04T17:47:32.792Z,6.26
2023-01-04T17:50:00.825Z,6.53
2023-01-04T17:52:31.279Z,6.24
2023-01-04T17:54:58.494Z,6.63
2023-01-04T17:57:25.187Z,6.61
2023-01-04T17:59:51.943Z,6.76
2023-01-04T18:02:18.726Z,6.74
2023-01-04T18:04:45.685Z,6.91
2023-01-04T18:09:38.959Z,6.64
2023-01-04T18:12:05.799Z,6.71
2023-01-04T18:14:32.621Z,6.73
2023-01-04T18:16:59.498Z,6.62
2023-01-04T18:19:28.878Z,6.58
2023-01-04T18:21:56.493Z,6.59
2023-01-04T18:24:39.274Z,6.64
2023-01-04T18:27:21.610Z,7.20
2023-01-04T18:29:49.861Z,6.75
2023-01-04T18:32:16.629Z,7.02
2023-01-04T18:34:43.388Z,6.65
2023-01-04T18:37:10.059Z,6.71
2023-01-04T18:39:36.859Z,6.83
2023-01-04T18:42:03.685Z,6.76
2023-01-04T18:44:33.470Z,6.89
2023-01-04T18:47:00.975Z,6.46
2023-01-04T18:49:27.631Z,6.72
2023-01-04T18:51:54.315Z,6.82
2023-01-04T18:54:21.863Z,6.95
2023-01-04T18:56:48.846Z,6.91
2023-01-04T18:59:17.422Z,6.79
2023-01-04T19:01:45.630Z,6.83
2023-01-04T19:04:13.062Z,7.09
2023-01-04T19:06:40.874Z,6.87
2023-01-04T19:09:08.110Z,6.80
2023-01-04T19:11:35.660Z,6.59
2023-01-04T19:14:03.514Z,6.17
2023-01-04T19:16:31.512Z,6.28
2023-01-04T19:19:01.825Z,6.23
2023-01-04T19:21:29.110Z,6.65
2023-01-04T19:23:56.233Z,6.49
2023-01-04T19:26:23.603Z,6.55
2023-01-04T19:28:51.227Z,6.61
2023-01-04T19:31:20.614Z,6.62
2023-01-04T19:33:48.483Z,6.32
2023-01-04T19:36:16.839Z,6.50
2023-01-04T19:38:43.663Z,6.39
2023-01-04T19:41:19.833Z,6.92
2023-01-04T19:43:47.224Z,6.66
2023-01-04T19:46:13.999Z,6.55
2023-01-04T19:48:41.190Z,6.29
2023-01-04T19:51:09.917Z,6.76
2023-01-04T19:53:37.042Z,6.62
2023-01-04T19:56:03.897Z,6.47
2023-01-04T19:58:31.060Z,6.36
2023-01-04T20:00:57.881Z,6.74
2023-01-04T20:03:27.728Z,6.80
2023-01-04T20:05:55.496Z,6.60
2023-01-04T20:08:22.227Z,6.23
2023-01-04T20:10:55.990Z,6.59
2023-01-04T20:13:22.863Z,6.22
2023-01-04T20:15:51.303Z,5.99
2023-01-04T20:18:18.404Z,5.68
2023-01-04T20:20:46.117Z,6.08
2023-01-04T20:23:14.090Z,5.80
2023-01-04T20:25:43.778Z,6.01
2023-01-04T20:28:10.650Z,5.69
2023-01-04T20:30:37.890Z,5.20
2023-01-04T20:33:05.657Z,5.87
2023-01-04T20:35:33.086Z,5.78
2023-01-04T20:37:59.809Z,5.92
2023-01-04T20:40:28.247Z,6.14
2023-01-04T20:43:14.137Z,6.17
2023-01-04T20:45:42.223Z,6.11
2023-01-04T20:48:09.192Z,6.19
2023-01-04T20:50:36.316Z,5.98
2023-01-04T20:53:04.017Z,6.11
2023-01-04T20:55:30.778Z,6.64
2023-01-04T20:57:57.896Z,6.00
2023-01-04T21:00:24.711Z,6.22
2023-01-04T21:02:51.651Z,6.47
2023-01-04T21:05:18.540Z,6.44
2023-01-04T21:07:45.287Z,6.22
2023-01-04T21:10:11.971Z,6.38
2023-01-04T21:12:38.913Z,6.38
2023-01-04T21:15:06.781Z,6.30
2023-01-04T21:17:33.463Z,6.29
2023-01-04T21:20:00.210Z,6.44
2023-01-04T21:22:26.943Z,6.16
2023-01-04T21:24:53.614Z,6.19
2023-01-04T21:27:20.315Z,6.12
2023-01-04T21:29:47.319Z,6.19
2023-01-04T21:32:14.052Z,6.30
2023-01-04T21:34:40.806Z,6.46
2023-01-04T21:37:07.493Z,6.36
2023-01-04T21:39:34.306Z,6.45
2023-01-04T21:42:00.968Z,6.45
2023-01-04T21:44:27.984Z,6.57
2023-01-04T21:46:54.721Z,6.63
2023-01-04T21:49:21.495Z,6.55
2023-01-04T21:51:48.365Z,6.93
2023-01-04T21:54:15.016Z,6.79
2023-01-04T21:56:41.749Z,6.73
2023-01-04T21:59:08.459Z,6.22
2023-01-04T22:01:35.686Z,6.26
2023-01-04T22:04:03.633Z,5.84
2023-01-04T22:06:30.424Z,5.98
2023-01-04T22:08:58.684Z,5.76
2023-01-04T22:11:25.441Z,5.92
2023-01-04T22:13:52.198Z,5.79
2023-01-04T22:16:19.021Z,5.98
2023-01-04T22:18:48.263Z,5.86
2023-01-04T22:21:16.814Z,6.27
2023-01-04T22:23:43.698Z,6.02
2023-01-04T22:26:10.577Z,6.04
2023-01-04T22:28:37.638Z,6.21
2023-01-04T22:31:10.383Z,6.18
2023-01-04T22:33:37.794Z,6.33
2023-01-04T22:36:15.413Z,6.14
2023-01-04T22:38:46.609Z,5.92
2023-01-04T22:41:16.515Z,6.24
2023-01-04T22:43:44.401Z,6.13
2023-01-04T22:46:17.610Z,5.85
2023-01-04T22:48:45.611Z,6.30
2023-01-04T22:51:15.199Z,6.10
2023-01-04T22:53:42.046Z,5.90
2023-01-04T22:56:20.760Z,6.09
2023-01-04T22:58:55.190Z,6.21
2023-01-04T23:01:30.948Z,6.00
2023-01-04T23:03:59.759Z,5.89
2023-01-04T23:06:29.251Z,6.00
2023-01-04T23:09:04.935Z,6.31
2023-01-04T23:11:33.305Z,5.76
2023-01-04T23:14:02.519Z,5.67
2023-01-04T23:16:33.149Z,5.99
2023-01-04T23:19:01.743Z,5.89
2023-01-04T23:21:29.243Z,6.14
2023-01-04T23:23:56.036Z,6.00
2023-01-04T23:26:24.466Z,5.80
2023-01-04T23:28:51.844Z,5.77
2023-01-04T23:31:21.740Z,5.97
2023-01-04T23:33:52.464Z,5.82
2023-01-04T23:36:22.861Z,5.73
2023-01-04T23:38:54.973Z,5.66
2023-01-04T23:41:42.424Z,5.90
2023-01-04T23:44:16.943Z,5.86
2023-01-04T23:46:44.070Z,5.80
2023-01-04T23:49:12.043Z,5.89
2023-01-04T23:51:38.848Z,5.40
2023-01-04T23:54:06.274Z,6.06
2023-01-04T23:56:33.006Z,5.62
2023-01-04T23:58:59.726Z,5.79
